createdAt,value
2017-08-15T00:01:21.712Z,97301.33
2017-08-15T00:03:49.305Z,97297.58
2017-08-15T00:06:16.938Z,97292.95
2017-08-15T00:08:44.532Z,97291.28
2017-08-15T00:11:12.173Z,97298.16
2017-08-15T00:13:39.961Z,97299.01
2017-08-15T00:16:07.567Z,97301.58
2017-08-15T00:18:35.158Z,97296.92
2017-08-15T00:21:02.902Z,97295.71
2017-08-15T00:23:30.673Z,97294.09
2017-08-15T00:25:58.605Z,97293.30
2017-08-15T00:28:26.226Z,97294.23
2017-08-15T00:30:53.851Z,97292.59
2017-08-15T00:33:21.491Z,97294.33
2017-08-15T00:35:49.184Z,97288.38
2017-08-15T00:38:16.847Z,97288.80
2017-08-15T00:40:44.444Z,97279.42
2017-08-15T00:43:12.085Z,97281.60
2017-08-15T00:45:39.745Z,97290.20
2017-08-15T00:48:07.381Z,97283.80
2017-08-15T00:50:35.084Z,97290.72
2017-08-15T00:53:02.707Z,97287.73
2017-08-15T00:55:30.303Z,97286.47
2017-08-15T00:57:58.245Z,97288.63
2017-08-15T01:00:25.826Z,97291.62
2017-08-15T01:02:55.582Z,97284.39
2017-08-15T01:05:23.218Z,97287.39
2017-08-15T01:07:50.833Z,97286.98
2017-08-15T01:10:18.463Z,97287.44
2017-08-15T01:12:46.293Z,97289.56
2017-08-15T01:15:13.915Z,97289.61
2017-08-15T01:17:41.635Z,97285.77
2017-08-15T01:20:09.250Z,97286.25
2017-08-15T01:22:36.824Z,97285.86
2017-08-15T01:25:04.861Z,97287.16
2017-08-15T01:27:32.789Z,97296.55
2017-08-15T01:30:00.509Z,97296.11
2017-08-15T01:32:28.298Z,97298.67
2017-08-15T01:34:55.892Z,97293.12
2017-08-15T01:37:23.608Z,97293.95
2017-08-15T01:39:51.318Z,97292.25
2017-08-15T01:42:18.940Z,97292.66
2017-08-15T01:44:46.553Z,97298.23
2017-08-15T01:47:14.193Z,97295.71
2017-08-15T01:49:41.808Z,97293.61
2017-08-15T01:52:09.762Z,97288.50
2017-08-15T01:54:37.354Z,97287.21
2017-08-15T01:57:04.970Z,97286.41
2017-08-15T01:59:32.593Z,97289.86
2017-08-15T02:02:00.216Z,97292.42
2017-08-15T02:04:27.895Z,97286.81
2017-08-15T02:06:55.609Z,97294.09
2017-08-15T02:09:23.329Z,97292.40
2017-08-15T02:11:50.940Z,97291.54
2017-08-15T02:14:18.647Z,97291.95
2017-08-15T02:16:46.243Z,97285.13
2017-08-15T02:19:14.148Z,97288.61
2017-08-15T02:21:41.741Z,97298.44
2017-08-15T02:24:09.343Z,97290.66
2017-08-15T02:26:37.051Z,97292.78
2017-08-15T02:29:04.651Z,97292.77
2017-08-15T02:31:32.273Z,97287.21
2017-08-15T02:33:59.862Z,97289.77
2017-08-15T02:36:27.467Z,97290.26
2017-08-15T02:38:55.056Z,97288.12
2017-08-15T02:41:22.675Z,97286.88
2017-08-15T02:43:50.258Z,97284.80
2017-08-15T02:46:18.214Z,97289.99
2017-08-15T02:48:45.816Z,97288.73
2017-08-15T02:51:13.415Z,97285.75
2017-08-15T02:53:41.112Z,97286.63
2017-08-15T02:56:08.805Z,97280.20
2017-08-15T02:58:36.417Z,97284.85
2017-08-15T03:01:04.011Z,97284.39
2017-08-15T03:03:31.627Z,97284.37
2017-08-15T03:05:59.219Z,97279.24
2017-08-15T03:08:27.188Z,97276.25
2017-08-15T03:10:54.767Z,97280.95
2017-08-15T03:13:22.369Z,97283.08
2017-08-15T03:15:50.002Z,97285.19
2017-08-15T03:18:17.581Z,97280.52
2017-08-15T03:20:45.180Z,97288.25
2017-08-15T03:23:12.789Z,97291.28
2017-08-15T03:25:40.409Z,97291.67
2017-08-15T03:28:07.997Z,97293.41
2017-08-15T03:30:36.166Z,97294.28
2017-08-15T03:33:03.742Z,97296.00
2017-08-15T03:35:31.318Z,97301.19
2017-08-15T03:37:58.938Z,97301.62
2017-08-15T03:40:26.535Z,97304.20
2017-08-15T03:42:54.137Z,97308.05
2017-08-15T03:45:21.731Z,97307.24
2017-08-15T03:47:49.352Z,97314.52
2017-08-15T03:50:17.783Z,97314.52
2017-08-15T03:52:45.434Z,97323.91
2017-08-15T03:55:13.015Z,97321.36
2017-08-15T03:57:40.880Z,97324.77
2017-08-15T04:00:08.651Z,97323.09
2017-08-15T04:02:36.251Z,97320.13
2017-08-15T04:05:03.907Z,97312.45
2017-08-15T04:07:31.498Z,97322.69
2017-08-15T04:09:59.113Z,97323.55
2017-08-15T04:12:26.727Z,97324.41
2017-08-15T04:14:54.329Z,97334.70
2017-08-15T04:17:21.922Z,97335.56
2017-08-15T04:19:49.553Z,97340.69
2017-08-15T04:22:17.145Z,97338.61
2017-08-15T04:24:45.132Z,97342.47
2017-08-15T04:27:12.773Z,97336.48
2017-08-15T04:29:40.381Z,97355.25
2017-08-15T04:32:08.020Z,97354.40
2017-08-15T04:34:35.608Z,97348.84
2017-08-15T04:37:03.218Z,97348.86
2017-08-15T04:39:30.828Z,97348.00
2017-08-15T04:41:58.694Z,97349.70
2017-08-15T04:44:26.316Z,97344.57
2017-08-15T04:46:53.966Z,97348.83
2017-08-15T04:49:21.560Z,97344.54
2017-08-15T04:51:49.430Z,97344.08
2017-08-15T04:54:17.028Z,97346.16
2017-08-15T04:56:44.766Z,97351.31
2017-08-15T04:59:12.391Z,97353.41
2017-08-15T05:01:39.989Z,97353.02
2017-08-15T05:04:07.598Z,97353.84
2017-08-15T05:06:35.214Z,97357.23
2017-08-15T05:09:02.793Z,97353.37
2017-08-15T05:11:30.359Z,97348.64
2017-08-15T05:13:58.047Z,97346.48
2017-08-15T05:16:25.616Z,97337.09
2017-08-15T05:18:53.703Z,97350.36
2017-08-15T05:21:21.289Z,97353.30
2017-08-15T05:23:48.868Z,97346.83
2017-08-15T05:26:16.462Z,97354.44
2017-08-15T05:28:44.061Z,97362.52
2017-08-15T05:31:11.648Z,97371.09
2017-08-15T05:33:39.250Z,97362.13
2017-08-15T05:36:06.881Z,97362.11
2017-08-15T05:38:34.465Z,97351.53
2017-08-15T05:41:02.373Z,97354.20
2017-08-15T05:43:29.950Z,97354.67
2017-08-15T05:45:57.539Z,97353.83
2017-08-15T05:48:25.371Z,97346.13
2017-08-15T05:50:52.970Z,97346.54
2017-08-15T05:53:20.563Z,97347.36
2017-08-15T05:55:48.164Z,97349.88
2017-08-15T05:58:15.765Z,97354.12
2017-08-15T06:00:43.359Z,97345.06
2017-08-15T06:03:10.985Z,97342.86
2017-08-15T06:05:38.578Z,97344.11
2017-08-15T06:08:06.204Z,97344.87
2017-08-15T06:10:34.479Z,97345.20
2017-08-15T06:13:02.057Z,97341.25
2017-08-15T06:15:29.653Z,97351.44
2017-08-15T06:17:57.241Z,97343.17
2017-08-15T06:20:24.815Z,97344.80
2017-08-15T06:22:52.406Z,97347.73
2017-08-15T06:25:20.388Z,97345.12
2017-08-15T06:27:47.976Z,97350.58
2017-08-15T06:30:15.552Z,97344.08
2017-08-15T06:32:43.251Z,97346.98
2017-08-15T06:35:10.869Z,97352.02
2017-08-15T06:37:38.487Z,97356.27
2017-08-15T06:40:06.076Z,97357.41
2017-08-15T06:42:33.703Z,97356.02
2017-08-15T06:45:01.294Z,97353.30
2017-08-15T06:47:28.890Z,97351.03
2017-08-15T06:49:56.471Z,97352.17
2017-08-15T06:52:24.348Z,97349.02
2017-08-15T06:54:51.926Z,97344.20
2017-08-15T06:57:19.511Z,97360.36
2017-08-15T06:59:47.112Z,97346.88
2017-08-15T07:02:14.689Z,97353.14
2017-08-15T07:04:42.533Z,97349.56
2017-08-15T07:07:10.136Z,97349.42
2017-08-15T07:09:37.753Z,97350.50
2017-08-15T07:12:05.372Z,97345.28
2017-08-15T07:14:33.000Z,97345.99
2017-08-15T07:17:00.613Z,97343.77
2017-08-15T07:19:29.196Z,97336.44
2017-08-15T07:21:56.829Z,97336.68
2017-08-15T07:24:24.429Z,97337.81
2017-08-15T07:26:52.026Z,97329.89
2017-08-15T07:29:19.758Z,97338.31
2017-08-15T07:31:47.859Z,97332.53
2017-08-15T07:34:15.478Z,97336.74
2017-08-15T07:36:43.847Z,97327.52
2017-08-15T07:39:11.867Z,97330.35
2017-08-15T07:41:39.692Z,97331.43
2017-08-15T07:44:07.324Z,97326.50
2017-08-15T07:46:34.924Z,97318.67
2017-08-15T07:49:02.718Z,97320.12
2017-08-15T07:51:30.412Z,97320.78
2017-08-15T07:53:59.197Z,97322.38
2017-08-15T07:56:27.873Z,97323.00
2017-08-15T07:58:56.047Z,97322.72
2017-08-15T08:01:23.658Z,97322.28
2017-08-15T08:03:51.261Z,97323.72
2017-08-15T08:06:20.141Z,97326.05
2017-08-15T08:08:47.974Z,97325.90
2017-08-15T08:11:17.143Z,97316.34
2017-08-15T08:13:44.711Z,97328.25
2017-08-15T08:16:12.352Z,97325.91
2017-08-15T08:18:39.969Z,97326.41
2017-08-15T08:21:08.853Z,97322.77
2017-08-15T08:23:36.438Z,97314.31
2017-08-15T08:26:04.462Z,97317.16
2017-08-15T08:28:32.592Z,97310.17
2017-08-15T08:31:00.189Z,97317.70
2017-08-15T08:33:27.805Z,97315.27
2017-08-15T08:35:55.689Z,97311.06
2017-08-15T08:38:24.538Z,97312.00
2017-08-15T08:40:52.133Z,97311.16
2017-08-15T08:43:27.179Z,97305.99
2017-08-15T08:45:55.769Z,97309.53
2017-08-15T08:48:23.382Z,97305.89
2017-08-15T08:50:51.416Z,97309.48
2017-08-15T08:58:56.097Z,97299.20
2017-08-15T09:01:23.691Z,97295.87
2017-08-15T09:03:51.326Z,97292.95
2017-08-15T09:06:20.560Z,97288.81
2017-08-15T09:08:48.293Z,97288.89
2017-08-15T09:11:15.909Z,97287.90
2017-08-15T09:13:43.530Z,97289.42
2017-08-15T09:16:11.162Z,97288.23
2017-08-15T09:18:38.746Z,97283.89
2017-08-15T09:21:06.359Z,97281.47
2017-08-15T09:23:34.128Z,97278.46
2017-08-15T09:26:02.119Z,97277.35
2017-08-15T09:28:29.705Z,97279.62
2017-08-15T09:30:57.453Z,97284.58
2017-08-15T09:33:25.197Z,97278.73
2017-08-15T09:35:52.778Z,97279.09
2017-08-15T09:38:20.400Z,97282.08
2017-08-15T09:40:47.985Z,97279.03
2017-08-15T09:43:15.674Z,97280.43
2017-08-15T09:45:43.285Z,97281.78
2017-08-15T09:48:10.879Z,97280.77
2017-08-15T09:50:38.965Z,97286.15
2017-08-15T09:53:06.910Z,97277.34
2017-08-15T09:55:34.509Z,97280.87
2017-08-15T09:58:08.056Z,97280.56
2017-08-15T10:00:35.668Z,97281.77
2017-08-15T10:03:03.886Z,97278.91
2017-08-15T10:05:31.497Z,97284.89
2017-08-15T10:07:59.100Z,97273.50
2017-08-15T10:10:26.757Z,97271.77
2017-08-15T10:12:54.358Z,97271.17
2017-08-15T10:15:22.115Z,97270.67
2017-08-15T10:17:49.717Z,97270.00
2017-08-15T10:20:17.661Z,97266.93
2017-08-15T10:22:45.252Z,97266.58
2017-08-15T10:25:12.850Z,97271.78
2017-08-15T10:27:40.500Z,97266.28
2017-08-15T10:30:08.200Z,97264.65
2017-08-15T10:32:35.848Z,97259.88
2017-08-15T10:35:03.497Z,97252.42
2017-08-15T10:37:31.111Z,97257.09
2017-08-15T10:39:58.737Z,97257.77
2017-08-15T10:42:26.381Z,97264.45
2017-08-15T10:44:53.980Z,97263.88
2017-08-15T10:47:21.928Z,97264.45
2017-08-15T10:49:49.693Z,97262.65
2017-08-15T10:52:17.449Z,97259.97
2017-08-15T10:54:45.054Z,97259.63
2017-08-15T10:57:12.658Z,97256.86
2017-08-15T10:59:40.274Z,97259.78
2017-08-15T11:02:07.876Z,97253.22
2017-08-15T11:04:35.490Z,97249.61
2017-08-15T11:07:03.096Z,97249.77
2017-08-15T11:09:30.705Z,97247.80
2017-08-15T11:11:58.346Z,97237.71
2017-08-15T11:14:26.148Z,97244.20
2017-08-15T11:16:53.758Z,97237.59
2017-08-15T11:19:21.834Z,97239.02
2017-08-15T11:21:49.422Z,97234.04
2017-08-15T11:24:17.001Z,97236.64
2017-08-15T11:26:44.673Z,97232.89
2017-08-15T11:29:12.292Z,97226.63
2017-08-15T11:31:39.932Z,97227.76
2017-08-15T11:34:10.244Z,97226.68
2017-08-15T11:36:37.910Z,97227.39
2017-08-15T11:39:05.539Z,97225.83
2017-08-15T11:41:33.189Z,97218.78
2017-08-15T11:44:00.929Z,97221.93
2017-08-15T11:46:28.549Z,97218.43
2017-08-15T11:48:56.158Z,97221.30
2017-08-15T11:51:24.539Z,97213.77
2017-08-15T11:53:52.225Z,97222.51
2017-08-15T11:56:19.851Z,97211.31
2017-08-15T11:58:48.345Z,97216.72
2017-08-15T12:01:20.474Z,97208.98
2017-08-15T12:03:48.135Z,97208.55
2017-08-15T12:06:15.830Z,97210.89
2017-08-15T12:08:43.790Z,97210.98
2017-08-15T12:11:11.402Z,97201.94
2017-08-15T12:13:39.020Z,97197.41
2017-08-15T12:16:06.646Z,97195.63
2017-08-15T12:18:34.269Z,97204.42
2017-08-15T12:21:02.348Z,97196.11
2017-08-15T12:23:29.940Z,97189.67
2017-08-15T12:25:57.605Z,97190.03
2017-08-15T12:28:25.896Z,97193.34
2017-08-15T12:30:53.708Z,97196.20
2017-08-15T12:33:21.350Z,97195.13
2017-08-15T12:35:48.978Z,97192.88
2017-08-15T12:38:18.940Z,97190.26
2017-08-15T12:40:46.604Z,97190.39
2017-08-15T12:43:14.515Z,97192.00
2017-08-15T12:45:42.151Z,97182.28
2017-08-15T12:48:11.192Z,97184.84
2017-08-15T12:50:38.838Z,97185.87
2017-08-15T12:53:06.437Z,97196.06
2017-08-15T12:55:34.381Z,97182.63
2017-08-15T12:58:02.247Z,97184.25
2017-08-15T13:00:29.840Z,97179.36
2017-08-15T13:02:57.462Z,97172.00
2017-08-15T13:05:25.067Z,97170.91
2017-08-15T13:07:53.151Z,97172.05
2017-08-15T13:10:20.767Z,97169.39
2017-08-15T13:12:48.357Z,97166.10
2017-08-15T13:15:16.018Z,97161.83
2017-08-15T13:17:43.717Z,97166.48
2017-08-15T13:20:11.629Z,97161.41
2017-08-15T13:22:39.234Z,97154.19
2017-08-15T13:25:06.841Z,97151.48
2017-08-15T13:27:34.495Z,97153.54
2017-08-15T13:30:02.099Z,97148.47
2017-08-15T13:32:30.010Z,97148.82
2017-08-15T13:34:57.626Z,97140.02
2017-08-15T13:37:25.526Z,97138.95
2017-08-15T13:39:53.146Z,97134.43
2017-08-15T13:42:20.751Z,97136.80
2017-08-15T13:44:48.377Z,97129.87
2017-08-15T13:47:16.018Z,97126.42
2017-08-15T13:49:43.815Z,97124.53
2017-08-15T13:52:11.429Z,97123.20
2017-08-15T13:54:39.443Z,97125.52
2017-08-15T13:57:07.057Z,97122.39
2017-08-15T13:59:34.670Z,97121.12
2017-08-15T14:02:02.332Z,97117.77
2017-08-15T14:04:30.142Z,97118.84
2017-08-15T14:06:57.843Z,97113.53
2017-08-15T14:09:26.693Z,97111.17
2017-08-15T14:11:54.682Z,97118.53
2017-08-15T14:14:22.302Z,97116.43
2017-08-15T14:16:49.938Z,97114.30
2017-08-15T14:19:17.618Z,97119.39
2017-08-15T14:21:45.244Z,97123.58
2017-08-15T14:24:13.131Z,97117.09
2017-08-15T14:26:40.745Z,97116.12
2017-08-15T14:29:08.813Z,97121.29
2017-08-15T14:31:36.540Z,97123.69
2017-08-15T14:34:04.204Z,97122.58
2017-08-15T14:36:31.850Z,97119.64
2017-08-15T14:38:59.655Z,97115.48
2017-08-15T14:41:27.248Z,97113.66
2017-08-15T14:43:55.819Z,97115.03
2017-08-15T14:46:23.802Z,97111.34
2017-08-15T14:48:51.507Z,97108.27
2017-08-15T14:51:19.188Z,97107.91
2017-08-15T14:53:46.802Z,97111.22
2017-08-15T14:56:14.731Z,97105.15
2017-08-15T14:58:42.758Z,97100.50
2017-08-15T15:01:10.328Z,97099.88
2017-08-15T15:03:38.022Z,97101.63
2017-08-15T15:06:05.629Z,97098.88
2017-08-15T15:08:33.245Z,97100.16
2017-08-15T15:11:02.037Z,97095.95
2017-08-15T15:13:29.673Z,97088.74
2017-08-15T15:15:57.711Z,97087.16
2017-08-15T15:18:26.962Z,97091.27
2017-08-15T15:20:54.950Z,97074.61
2017-08-15T15:23:22.662Z,97074.26
2017-08-15T15:25:50.259Z,97071.58
2017-08-15T15:28:17.874Z,97066.36
2017-08-15T15:30:45.605Z,97069.89
2017-08-15T15:33:13.512Z,97070.95
2017-08-15T15:35:41.096Z,97073.53
2017-08-15T15:38:08.725Z,97072.57
2017-08-15T15:40:36.430Z,97076.72
2017-08-15T15:43:04.040Z,97083.95
2017-08-15T15:45:31.774Z,97084.89
2017-08-15T15:47:59.379Z,97085.70
2017-08-15T15:50:27.328Z,97082.70
2017-08-15T15:52:54.953Z,97084.66
2017-08-15T15:55:22.571Z,97087.77
2017-08-15T15:57:50.278Z,97083.45
2017-08-15T16:00:17.905Z,97089.75
2017-08-15T16:02:45.808Z,97093.75
2017-08-15T16:05:15.743Z,97091.25
2017-08-15T16:07:43.686Z,97090.08
2017-08-15T16:10:11.412Z,97101.58
2017-08-15T16:12:39.004Z,97098.84
2017-08-15T16:15:07.948Z,97095.17
2017-08-15T16:17:35.613Z,97099.67
2017-08-15T16:20:04.096Z,97098.58
2017-08-15T16:22:31.737Z,97096.59
2017-08-15T16:24:59.491Z,97104.94
2017-08-15T16:27:27.125Z,97108.31
2017-08-15T16:29:56.073Z,97110.78
2017-08-15T16:32:23.709Z,97106.47
2017-08-15T16:34:51.414Z,97105.70
2017-08-15T16:37:19.038Z,97105.73
2017-08-15T16:39:46.643Z,97108.78
2017-08-15T16:42:14.568Z,97108.46
2017-08-15T16:44:42.196Z,97108.95
2017-08-15T16:47:09.773Z,97103.87
2017-08-15T16:49:37.390Z,97107.79
2017-08-15T16:52:04.992Z,97100.39
2017-08-15T16:54:32.633Z,97105.37
2017-08-15T16:59:34.639Z,97100.27
2017-08-15T17:02:02.334Z,97100.05
2017-08-15T17:04:30.262Z,97089.31
2017-08-15T17:06:57.904Z,97092.76
2017-08-15T17:09:25.507Z,97089.81
2017-08-15T17:11:53.496Z,97084.06
2017-08-15T17:14:21.092Z,97081.50
2017-08-15T17:16:48.732Z,97077.13
2017-08-15T17:19:16.505Z,97079.89
2017-08-15T17:21:44.229Z,97073.02
2017-08-15T17:24:12.079Z,97071.97
2017-08-15T17:26:39.690Z,97074.00
2017-08-15T17:29:07.627Z,97074.69
2017-08-15T17:31:35.212Z,97075.47
2017-08-15T17:34:02.845Z,97072.40
2017-08-15T17:36:30.561Z,97064.69
2017-08-15T17:38:58.199Z,97056.59
2017-08-15T17:41:25.831Z,97059.75
2017-08-15T17:43:53.433Z,97058.98
2017-08-15T17:46:21.136Z,97065.45
2017-08-15T17:48:48.742Z,97072.63
2017-08-15T17:51:16.699Z,97062.02
2017-08-15T17:53:44.280Z,97072.92
2017-08-15T17:56:11.900Z,97079.56
2017-08-15T17:58:39.679Z,97077.04
2017-08-15T18:01:07.338Z,97091.78
2017-08-15T18:03:35.091Z,97086.17
2017-08-15T18:06:02.728Z,97096.52
2017-08-15T18:08:30.628Z,97095.65
2017-08-15T18:10:58.258Z,97086.68
2017-08-15T18:13:25.883Z,97099.30
2017-08-15T18:15:53.565Z,97100.58
2017-08-15T18:18:21.154Z,97094.16
2017-08-15T18:20:48.929Z,97093.05
2017-08-15T18:23:16.536Z,97090.78
2017-08-15T18:25:44.478Z,97084.56
2017-08-15T18:28:12.087Z,97075.97
2017-08-15T18:30:39.697Z,97075.03
2017-08-15T18:33:07.341Z,97080.56
2017-08-15T18:35:35.061Z,97075.55
2017-08-15T18:38:02.694Z,97076.33
2017-08-15T18:40:30.331Z,97073.44
2017-08-15T18:42:58.245Z,97075.17
2017-08-15T18:45:25.832Z,97082.77
2017-08-15T18:47:53.463Z,97086.97
2017-08-15T18:50:29.965Z,97095.62
2017-08-15T18:52:57.717Z,97094.40
2017-08-15T18:55:26.423Z,97107.04
2017-08-15T18:57:54.050Z,97119.06
2017-08-15T19:00:21.681Z,97131.48
2017-08-15T19:02:49.308Z,97134.52
2017-08-15T19:05:16.922Z,97150.53
2017-08-15T19:07:44.556Z,97162.53
2017-08-15T19:10:12.273Z,97187.17
2017-08-15T19:12:39.905Z,97194.77
2017-08-15T19:15:07.620Z,97195.91
2017-08-15T19:17:35.243Z,97200.15
2017-08-15T19:20:02.914Z,97206.13
2017-08-15T19:22:30.526Z,97210.28
2017-08-15T19:24:58.578Z,97211.03
2017-08-15T19:27:26.205Z,97213.04
2017-08-15T19:29:53.800Z,97219.31
2017-08-15T19:32:21.456Z,97224.75
2017-08-15T19:34:49.052Z,97223.54
2017-08-15T19:37:16.679Z,97222.38
2017-08-15T19:39:44.268Z,97224.97
2017-08-15T19:42:11.886Z,97227.73
2017-08-15T19:44:39.638Z,97229.56
2017-08-15T19:47:07.602Z,97228.62
2017-08-15T19:49:35.284Z,97230.78
2017-08-15T19:52:02.917Z,97222.72
2017-08-15T19:54:30.615Z,97229.02
2017-08-15T19:56:58.236Z,97230.08
2017-08-15T19:59:25.847Z,97223.80
2017-08-15T20:01:53.489Z,97222.91
2017-08-15T20:04:21.106Z,97235.14
2017-08-15T20:06:48.728Z,97239.63
2017-08-15T20:09:16.342Z,97241.50
2017-08-15T20:11:44.796Z,97243.17
2017-08-15T20:14:13.440Z,97238.05
2017-08-15T20:16:41.091Z,97232.99
2017-08-15T20:19:08.796Z,97232.31
2017-08-15T20:21:36.496Z,97238.97
2017-08-15T20:24:04.139Z,97236.38
2017-08-15T20:26:31.742Z,97234.23
2017-08-15T20:28:59.685Z,97253.29
2017-08-15T20:31:27.311Z,97261.34
2017-08-15T20:33:54.914Z,97269.52
2017-08-15T20:36:22.538Z,97263.61
2017-08-15T20:38:50.146Z,97270.94
2017-08-15T20:41:17.786Z,97276.11
2017-08-15T20:43:45.399Z,97271.26
2017-08-15T20:46:13.431Z,97256.60
2017-08-15T20:48:41.087Z,97252.30
2017-08-15T20:51:08.692Z,97242.97
2017-08-15T20:53:36.446Z,97242.17
2017-08-15T20:56:04.044Z,97246.43
2017-08-15T20:58:31.689Z,97249.81
2017-08-15T21:00:59.315Z,97256.77
2017-08-15T21:03:27.264Z,97244.27
2017-08-15T21:05:54.868Z,97243.48
2017-08-15T21:08:22.477Z,97250.44
2017-08-15T21:10:50.086Z,97251.41
2017-08-15T21:13:17.700Z,97247.22
2017-08-15T21:15:45.311Z,97250.03
2017-08-15T21:18:13.055Z,97249.75
2017-08-15T21:20:41.104Z,97250.73
2017-08-15T21:23:08.914Z,97249.12
2017-08-15T21:25:36.497Z,97241.59
2017-08-15T21:28:04.119Z,97243.50
2017-08-15T21:30:31.743Z,97248.30
2017-08-15T21:32:59.449Z,97249.59
2017-08-15T21:35:27.063Z,97257.34
2017-08-15T21:37:55.047Z,97260.78
2017-08-15T21:40:22.654Z,97258.58
2017-08-15T21:42:50.299Z,97262.93
2017-08-15T21:45:17.913Z,97262.06
2017-08-15T21:47:45.540Z,97263.43
2017-08-15T21:50:13.170Z,97254.11
2017-08-15T21:52:40.780Z,97248.58
2017-08-15T21:55:08.818Z,97243.95
2017-08-15T21:57:36.423Z,97238.78
2017-08-15T22:00:04.027Z,97244.87
2017-08-15T22:02:31.661Z,97246.25
2017-08-15T22:04:59.281Z,97254.88
2017-08-15T22:07:26.931Z,97252.34
2017-08-15T22:09:54.557Z,97254.49
2017-08-15T22:12:22.443Z,97247.61
2017-08-15T22:14:50.036Z,97245.95
2017-08-15T22:17:17.627Z,97243.84
2017-08-15T22:19:45.227Z,97251.22
2017-08-15T22:22:12.837Z,97248.63
2017-08-15T22:24:40.470Z,97245.14
2017-08-15T22:27:08.101Z,97243.84
2017-08-15T22:29:36.060Z,97236.58
2017-08-15T22:32:03.692Z,97238.67
2017-08-15T22:34:31.291Z,97230.48
2017-08-15T22:36:59.075Z,97236.09
2017-08-15T22:39:26.668Z,97234.44
2017-08-15T22:41:54.296Z,97235.39
2017-08-15T22:44:21.912Z,97229.42
2017-08-15T22:46:49.902Z,97228.99
2017-08-15T22:49:17.501Z,97224.69
2017-08-15T22:51:45.087Z,97225.98
2017-08-15T22:54:12.686Z,97229.42
2017-08-15T22:56:40.286Z,97226.03
2017-08-15T22:59:07.916Z,97229.17
2017-08-15T23:01:35.553Z,97234.48
2017-08-15T23:04:03.551Z,97243.16
2017-08-15T23:06:31.236Z,97245.47
2017-08-15T23:08:59.097Z,97248.17
2017-08-15T23:11:26.756Z,97251.34
2017-08-15T23:13:54.338Z,97260.11
2017-08-15T23:16:21.956Z,97269.19
2017-08-15T23:18:49.561Z,97288.61
2017-08-15T23:21:17.493Z,97319.07
2017-08-15T23:23:45.135Z,97360.53
2017-08-15T23:26:12.759Z,97374.83
2017-08-15T23:28:40.421Z,97386.11
2017-08-15T23:31:08.196Z,97400.22
2017-08-15T23:33:35.825Z,97394.97
2017-08-15T23:36:03.415Z,97403.39
2017-08-15T23:38:31.440Z,97408.02
2017-08-15T23:40:59.047Z,97406.67
2017-08-15T23:43:26.661Z,97382.95
2017-08-15T23:45:54.348Z,97373.16
2017-08-15T23:48:21.945Z,97378.37
2017-08-15T23:50:49.556Z,97383.67
2017-08-15T23:53:17.139Z,97395.82
2017-08-15T23:55:45.055Z,97397.34
2017-08-15T23:58:12.853Z,97408.38
